Details for FedEx at KMIA




Go Back


Latest METAR
Local Time

KMIA 241253Z 10009KT 10SM SCT023 24/20 A3021 RMK AO2 RAE1159 SLP231 P0000 T02390200

24/02/2018, 08:54:33

Description
Results
FedEx Logo
Number of Pilots based at KMIA
0 Pilots Based here
Number of FedEx Flights Departed from KMIA
0 Flights Departed
Number of FedEx Flights Arrived at KMIA
0 Flights Arrived
Number of FedEx Schedules Departing from KMIA
23 Schedules
Number of FedEx Schedules Arriving at KMIA
23 Schedules
Number of FedEx Schedules Departing from KMIA availible today
2 Schedules Today
Number of FedEx Schedules Arriving at KMIA availible today
4 Schedules Today
Average Landing Rate at KMIA
-228 fpm
FedEx Average Landing Rate at KMIA
0 fpm
Total Fuel Purchased at KMIA by FedEx
0.00 kgs / 0.00 lbs

Pilots Based at KMIA


Pilot ID
Pilot Name
Pilot Rank
No. of Flights
No. of Flying Hours
There are no pilots assigned to this hub!   Will you be the first?
Content